sensor_id;sensor_type;location;lat;lon;timestamp;temperature;humidity
20866;DHT22;10593;48.398;10.698;2022-09-25T00:00:53;14.60;62.80
20866;DHT22;10593;48.398;10.698;2022-09-25T00:03:21;14.60;62.80
20866;DHT22;10593;48.398;10.698;2022-09-25T00:05:49;14.60;62.70
20866;DHT22;10593;48.398;10.698;2022-09-25T00:08:17;14.60;62.70
20866;DHT22;10593;48.398;10.698;2022-09-25T00:10:49;14.50;62.80
20866;DHT22;10593;48.398;10.698;2022-09-25T00:13:17;14.50;62.80
20866;DHT22;10593;48.398;10.698;2022-09-25T00:15:49;14.50;62.70
20866;DHT22;10593;48.398;10.698;2022-09-25T00:18:21;14.50;62.70
20866;DHT22;10593;48.398;10.698;2022-09-25T00:21:08;14.50;62.70
20866;DHT22;10593;48.398;10.698;2022-09-25T00:23:39;14.40;62.40
20866;DHT22;10593;48.398;10.698;2022-09-25T00:26:07;14.50;62.70
20866;DHT22;10593;48.398;10.698;2022-09-25T00:28:36;14.40;62.70
20866;DHT22;10593;48.398;10.698;2022-09-25T00:31:04;14.40;62.60
20866;DHT22;10593;48.398;10.698;2022-09-25T00:33:32;14.40;62.70
20866;DHT22;10593;48.398;10.698;2022-09-25T00:36:04;14.40;62.90
20866;DHT22;10593;48.398;10.698;2022-09-25T00:38:35;14.40;62.90
20866;DHT22;10593;48.398;10.698;2022-09-25T00:41:04;14.40;63.00
20866;DHT22;10593;48.398;10.698;2022-09-25T00:43:45;14.40;63.10
20866;DHT22;10593;48.398;10.698;2022-09-25T00:46:26;14.40;63.10
20866;DHT22;10593;48.398;10.698;2022-09-25T00:49:09;14.30;62.80
20866;DHT22;10593;48.398;10.698;2022-09-25T00:51:45;14.30;63.00
20866;DHT22;10593;48.398;10.698;2022-09-25T00:54:17;14.30;63.20
20866;DHT22;10593;48.398;10.698;2022-09-25T00:56:47;14.30;63.10
20866;DHT22;10593;48.398;10.698;2022-09-25T00:59:21;14.30;63.30
20866;DHT22;10593;48.398;10.698;2022-09-25T01:01:49;14.30;63.40
20866;DHT22;10593;48.398;10.698;2022-09-25T01:04:17;14.30;63.50
20866;DHT22;10593;48.398;10.698;2022-09-25T01:06:47;14.30;63.70
20866;DHT22;10593;48.398;10.698;2022-09-25T01:09:15;14.30;63.90
20866;DHT22;10593;48.398;10.698;2022-09-25T01:11:41;14.30;64.00
20866;DHT22;10593;48.398;10.698;2022-09-25T01:14:07;14.30;64.00
20866;DHT22;10593;48.398;10.698;2022-09-25T01:16:40;14.30;64.00
20866;DHT22;10593;48.398;10.698;2022-09-25T01:25:56;14.30;64.00
20866;DHT22;10593;48.398;10.698;2022-09-25T01:31:45;14.30;63.90
20866;DHT22;10593;48.398;10.698;2022-09-25T01:40:27;14.30;63.70
20866;DHT22;10593;48.398;10.698;2022-09-25T01:43:19;14.30;63.70
20866;DHT22;10593;48.398;10.698;2022-09-25T01:46:07;14.30;64.00
20866;DHT22;10593;48.398;10.698;2022-09-25T01:48:38;14.30;64.00
20866;DHT22;10593;48.398;10.698;2022-09-25T01:51:15;14.30;64.10
20866;DHT22;10593;48.398;10.698;2022-09-25T01:53:54;14.30;64.20
20866;DHT22;10593;48.398;10.698;2022-09-25T01:56:50;14.30;64.20
20866;DHT22;10593;48.398;10.698;2022-09-25T01:59:48;14.30;64.30
20866;DHT22;10593;48.398;10.698;2022-09-25T02:02:22;14.30;64.20
20866;DHT22;10593;48.398;10.698;2022-09-25T02:04:58;14.30;64.20
20866;DHT22;10593;48.398;10.698;2022-09-25T02:07:34;14.30;64.30
20866;DHT22;10593;48.398;10.698;2022-09-25T02:10:08;14.30;64.40
20866;DHT22;10593;48.398;10.698;2022-09-25T02:12:44;14.30;64.40
20866;DHT22;10593;48.398;10.698;2022-09-25T02:15:31;14.30;64.40
20866;DHT22;10593;48.398;10.698;2022-09-25T02:18:03;14.30;64.50
20866;DHT22;10593;48.398;10.698;2022-09-25T02:26:41;14.30;64.30
20866;DHT22;10593;48.398;10.698;2022-09-25T02:29:07;14.30;64.20
20866;DHT22;10593;48.398;10.698;2022-09-25T02:31:41;14.30;64.10
20866;DHT22;10593;48.398;10.698;2022-09-25T02:34:10;14.30;64.10
20866;DHT22;10593;48.398;10.698;2022-09-25T02:36:37;14.30;64.00
20866;DHT22;10593;48.398;10.698;2022-09-25T02:39:04;14.20;63.90
20866;DHT22;10593;48.398;10.698;2022-09-25T02:44:31;14.20;64.00
20866;DHT22;10593;48.398;10.698;2022-09-25T02:50:41;14.20;64.00
20866;DHT22;10593;48.398;10.698;2022-09-25T02:56:12;14.20;64.10
20866;DHT22;10593;48.398;10.698;2022-09-25T02:58:51;14.20;64.30
20866;DHT22;10593;48.398;10.698;2022-09-25T03:01:23;14.20;64.30
20866;DHT22;10593;48.398;10.698;2022-09-25T03:03:54;14.20;64.50
20866;DHT22;10593;48.398;10.698;2022-09-25T03:06:24;14.20;64.50
20866;DHT22;10593;48.398;10.698;2022-09-25T03:08:54;14.20;64.60
20866;DHT22;10593;48.398;10.698;2022-09-25T03:11:23;14.20;64.50
20866;DHT22;10593;48.398;10.698;2022-09-25T03:13:58;14.20;64.50
20866;DHT22;10593;48.398;10.698;2022-09-25T03:16:38;14.20;64.60
20866;DHT22;10593;48.398;10.698;2022-09-25T03:19:08;14.20;64.70
20866;DHT22;10593;48.398;10.698;2022-09-25T03:21:34;14.20;64.50
20866;DHT22;10593;48.398;10.698;2022-09-25T03:23:59;14.20;64.50
20866;DHT22;10593;48.398;10.698;2022-09-25T03:26:25;14.20;64.50
20866;DHT22;10593;48.398;10.698;2022-09-25T03:28:52;14.20;64.50
20866;DHT22;10593;48.398;10.698;2022-09-25T03:31:18;14.20;64.50
20866;DHT22;10593;48.398;10.698;2022-09-25T03:33:44;14.20;64.50
20866;DHT22;10593;48.398;10.698;2022-09-25T03:36:19;14.20;64.50
20866;DHT22;10593;48.398;10.698;2022-09-25T03:38:48;14.20;64.60
20866;DHT22;10593;48.398;10.698;2022-09-25T03:41:20;14.20;64.70
20866;DHT22;10593;48.398;10.698;2022-09-25T03:43:48;14.20;64.80
20866;DHT22;10593;48.398;10.698;2022-09-25T03:46:17;14.20;64.70
20866;DHT22;10593;48.398;10.698;2022-09-25T03:48:45;14.20;64.70
20866;DHT22;10593;48.398;10.698;2022-09-25T03:51:11;14.20;64.70
20866;DHT22;10593;48.398;10.698;2022-09-25T03:53:37;14.20;64.80
20866;DHT22;10593;48.398;10.698;2022-09-25T03:56:06;14.20;64.90
20866;DHT22;10593;48.398;10.698;2022-09-25T03:58:35;14.20;65.00
20866;DHT22;10593;48.398;10.698;2022-09-25T04:01:01;14.20;65.00
20866;DHT22;10593;48.398;10.698;2022-09-25T04:03:28;14.20;65.10
20866;DHT22;10593;48.398;10.698;2022-09-25T04:05:56;14.20;65.20
20866;DHT22;10593;48.398;10.698;2022-09-25T04:08:24;14.20;65.20
20866;DHT22;10593;48.398;10.698;2022-09-25T04:10:55;14.20;65.40
20866;DHT22;10593;48.398;10.698;2022-09-25T04:13:25;14.20;65.50
20866;DHT22;10593;48.398;10.698;2022-09-25T04:15:54;14.20;65.60
20866;DHT22;10593;48.398;10.698;2022-09-25T04:18:22;14.20;65.50
20866;DHT22;10593;48.398;10.698;2022-09-25T04:20:49;14.20;65.50
20866;DHT22;10593;48.398;10.698;2022-09-25T04:23:15;14.20;65.50
20866;DHT22;10593;48.398;10.698;2022-09-25T04:25:41;14.20;65.60
20866;DHT22;10593;48.398;10.698;2022-09-25T04:28:07;14.20;65.60
20866;DHT22;10593;48.398;10.698;2022-09-25T04:30:34;14.20;65.60
20866;DHT22;10593;48.398;10.698;2022-09-25T04:33:00;14.20;65.60
20866;DHT22;10593;48.398;10.698;2022-09-25T04:35:45;14.20;65.60
20866;DHT22;10593;48.398;10.698;2022-09-25T04:38:10;14.20;65.60
20866;DHT22;10593;48.398;10.698;2022-09-25T04:40:37;14.20;65.70
20866;DHT22;10593;48.398;10.698;2022-09-25T04:43:05;14.30;65.80
20866;DHT22;10593;48.398;10.698;2022-09-25T04:45:34;14.30;66.20
20866;DHT22;10593;48.398;10.698;2022-09-25T04:48:01;14.30;66.20
20866;DHT22;10593;48.398;10.698;2022-09-25T04:50:29;14.20;66.10
20866;DHT22;10593;48.398;10.698;2022-09-25T04:52:56;14.20;66.30
20866;DHT22;10593;48.398;10.698;2022-09-25T04:55:22;14.30;66.40
20866;DHT22;10593;48.398;10.698;2022-09-25T04:57:50;14.30;66.50
20866;DHT22;10593;48.398;10.698;2022-09-25T05:00:18;14.30;66.80
20866;DHT22;10593;48.398;10.698;2022-09-25T05:02:45;14.30;66.80
20866;DHT22;10593;48.398;10.698;2022-09-25T05:05:11;14.30;67.00
20866;DHT22;10593;48.398;10.698;2022-09-25T05:07:37;14.30;67.00
20866;DHT22;10593;48.398;10.698;2022-09-25T05:10:07;14.30;67.20
20866;DHT22;10593;48.398;10.698;2022-09-25T05:12:33;14.30;67.30
20866;DHT22;10593;48.398;10.698;2022-09-25T05:15:00;14.30;67.40
20866;DHT22;10593;48.398;10.698;2022-09-25T05:17:26;14.30;67.50
20866;DHT22;10593;48.398;10.698;2022-09-25T05:19:52;14.30;67.50
20866;DHT22;10593;48.398;10.698;2022-09-25T05:22:18;14.30;67.60
20866;DHT22;10593;48.398;10.698;2022-09-25T05:24:43;14.30;67.80
20866;DHT22;10593;48.398;10.698;2022-09-25T05:27:09;14.40;67.90
20866;DHT22;10593;48.398;10.698;2022-09-25T05:29:34;14.40;67.90
20866;DHT22;10593;48.398;10.698;2022-09-25T05:32:00;14.40;67.90
20866;DHT22;10593;48.398;10.698;2022-09-25T05:34:26;14.40;68.00
20866;DHT22;10593;48.398;10.698;2022-09-25T05:36:52;14.40;68.00
20866;DHT22;10593;48.398;10.698;2022-09-25T05:39:17;14.40;68.10
20866;DHT22;10593;48.398;10.698;2022-09-25T05:41:43;14.40;68.10
20866;DHT22;10593;48.398;10.698;2022-09-25T05:44:10;14.40;68.20
20866;DHT22;10593;48.398;10.698;2022-09-25T05:46:35;14.40;68.40
20866;DHT22;10593;48.398;10.698;2022-09-25T05:49:01;14.40;68.30
20866;DHT22;10593;48.398;10.698;2022-09-25T05:51:27;14.40;68.30
20866;DHT22;10593;48.398;10.698;2022-09-25T05:53:53;14.40;68.30
20866;DHT22;10593;48.398;10.698;2022-09-25T05:56:21;14.50;68.50
20866;DHT22;10593;48.398;10.698;2022-09-25T05:58:50;14.50;68.50
20866;DHT22;10593;48.398;10.698;2022-09-25T06:01:17;14.40;68.40
20866;DHT22;10593;48.398;10.698;2022-09-25T06:03:44;14.40;68.40
20866;DHT22;10593;48.398;10.698;2022-09-25T06:06:10;14.40;68.40
20866;DHT22;10593;48.398;10.698;2022-09-25T06:08:36;14.50;68.50
20866;DHT22;10593;48.398;10.698;2022-09-25T06:11:03;14.50;68.40
20866;DHT22;10593;48.398;10.698;2022-09-25T06:13:30;14.40;68.30
20866;DHT22;10593;48.398;10.698;2022-09-25T06:15:59;14.50;68.50
20866;DHT22;10593;48.398;10.698;2022-09-25T06:18:25;14.50;68.60
20866;DHT22;10593;48.398;10.698;2022-09-25T06:21:02;14.50;68.60
20866;DHT22;10593;48.398;10.698;2022-09-25T06:23:29;14.50;68.60
20866;DHT22;10593;48.398;10.698;2022-09-25T06:26:03;14.50;68.50
20866;DHT22;10593;48.398;10.698;2022-09-25T06:28:30;14.50;68.60
20866;DHT22;10593;48.398;10.698;2022-09-25T06:31:01;14.50;68.40
20866;DHT22;10593;48.398;10.698;2022-09-25T06:33:28;14.50;68.40
20866;DHT22;10593;48.398;10.698;2022-09-25T06:35:54;14.50;68.30
20866;DHT22;10593;48.398;10.698;2022-09-25T06:38:20;14.60;68.50
20866;DHT22;10593;48.398;10.698;2022-09-25T06:40:46;14.60;68.40
20866;DHT22;10593;48.398;10.698;2022-09-25T06:43:14;14.60;68.40
20866;DHT22;10593;48.398;10.698;2022-09-25T06:45:42;14.60;68.50
20866;DHT22;10593;48.398;10.698;2022-09-25T06:48:12;14.60;68.50
20866;DHT22;10593;48.398;10.698;2022-09-25T06:50:46;14.60;68.50
20866;DHT22;10593;48.398;10.698;2022-09-25T06:53:15;14.60;68.50
20866;DHT22;10593;48.398;10.698;2022-09-25T06:55:43;14.60;68.40
20866;DHT22;10593;48.398;10.698;2022-09-25T06:58:17;14.60;68.40
20866;DHT22;10593;48.398;10.698;2022-09-25T07:00:46;14.60;68.50
20866;DHT22;10593;48.398;10.698;2022-09-25T07:03:13;14.60;68.50
20866;DHT22;10593;48.398;10.698;2022-09-25T07:06:01;14.60;68.50
20866;DHT22;10593;48.398;10.698;2022-09-25T07:08:28;14.60;68.60
20866;DHT22;10593;48.398;10.698;2022-09-25T07:10:56;14.60;68.50
20866;DHT22;10593;48.398;10.698;2022-09-25T07:13:28;14.70;68.60
20866;DHT22;10593;48.398;10.698;2022-09-25T07:15:58;14.70;68.60
20866;DHT22;10593;48.398;10.698;2022-09-25T07:18:26;14.70;68.50
20866;DHT22;10593;48.398;10.698;2022-09-25T07:20:53;14.70;68.30
20866;DHT22;10593;48.398;10.698;2022-09-25T07:23:24;14.70;68.20
20866;DHT22;10593;48.398;10.698;2022-09-25T07:25:50;14.70;68.20
20866;DHT22;10593;48.398;10.698;2022-09-25T07:28:16;14.70;68.30
20866;DHT22;10593;48.398;10.698;2022-09-25T07:30:44;14.70;68.40
20866;DHT22;10593;48.398;10.698;2022-09-25T07:33:11;14.70;68.30
20866;DHT22;10593;48.398;10.698;2022-09-25T07:35:37;14.70;68.40
20866;DHT22;10593;48.398;10.698;2022-09-25T07:38:03;14.70;68.40
20866;DHT22;10593;48.398;10.698;2022-09-25T07:40:29;14.70;68.50
20866;DHT22;10593;48.398;10.698;2022-09-25T07:43:03;14.70;68.50
20866;DHT22;10593;48.398;10.698;2022-09-25T07:45:29;14.70;68.50
20866;DHT22;10593;48.398;10.698;2022-09-25T07:47:57;14.70;68.40
20866;DHT22;10593;48.398;10.698;2022-09-25T07:50:25;14.70;68.30
20866;DHT22;10593;48.398;10.698;2022-09-25T07:52:52;14.70;68.10
20866;DHT22;10593;48.398;10.698;2022-09-25T07:55:18;14.80;68.10
20866;DHT22;10593;48.398;10.698;2022-09-25T07:57:44;14.80;68.10
20866;DHT22;10593;48.398;10.698;2022-09-25T08:00:11;14.80;68.10
20866;DHT22;10593;48.398;10.698;2022-09-25T08:02:37;14.80;68.00
20866;DHT22;10593;48.398;10.698;2022-09-25T08:05:04;14.70;67.90
20866;DHT22;10593;48.398;10.698;2022-09-25T08:07:30;14.80;68.00
20866;DHT22;10593;48.398;10.698;2022-09-25T08:09:57;14.80;67.90
20866;DHT22;10593;48.398;10.698;2022-09-25T08:12:23;14.80;67.90
20866;DHT22;10593;48.398;10.698;2022-09-25T08:14:50;14.80;67.90
20866;DHT22;10593;48.398;10.698;2022-09-25T08:17:16;14.80;67.80
20866;DHT22;10593;48.398;10.698;2022-09-25T08:19:43;14.80;67.70
20866;DHT22;10593;48.398;10.698;2022-09-25T08:22:09;14.80;67.70
20866;DHT22;10593;48.398;10.698;2022-09-25T08:24:34;14.80;67.70
20866;DHT22;10593;48.398;10.698;2022-09-25T08:27:02;14.80;67.80
20866;DHT22;10593;48.398;10.698;2022-09-25T08:29:29;14.80;67.90
20866;DHT22;10593;48.398;10.698;2022-09-25T08:31:55;14.80;67.90
20866;DHT22;10593;48.398;10.698;2022-09-25T08:34:21;14.90;67.90
20866;DHT22;10593;48.398;10.698;2022-09-25T08:36:48;14.80;67.70
20866;DHT22;10593;48.398;10.698;2022-09-25T08:39:15;14.80;67.70
20866;DHT22;10593;48.398;10.698;2022-09-25T08:41:51;14.80;67.70
20866;DHT22;10593;48.398;10.698;2022-09-25T08:47:14;14.90;68.20
20866;DHT22;10593;48.398;10.698;2022-09-25T08:52:46;14.90;67.90
20866;DHT22;10593;48.398;10.698;2022-09-25T08:55:23;14.90;67.90
20866;DHT22;10593;48.398;10.698;2022-09-25T08:58:14;14.90;67.90
20866;DHT22;10593;48.398;10.698;2022-09-25T09:00:55;14.90;67.90
20866;DHT22;10593;48.398;10.698;2022-09-25T09:03:25;14.90;67.90
20866;DHT22;10593;48.398;10.698;2022-09-25T09:06:06;15.00;68.00
20866;DHT22;10593;48.398;10.698;2022-09-25T09:08:38;15.00;68.10
20866;DHT22;10593;48.398;10.698;2022-09-25T09:11:11;15.00;68.00
20866;DHT22;10593;48.398;10.698;2022-09-25T09:13:52;15.00;68.10
20866;DHT22;10593;48.398;10.698;2022-09-25T09:18:47;15.00;68.10
20866;DHT22;10593;48.398;10.698;2022-09-25T09:21:36;15.00;68.10
20866;DHT22;10593;48.398;10.698;2022-09-25T09:24:17;15.10;68.20
20866;DHT22;10593;48.398;10.698;2022-09-25T09:27:56;15.10;68.00
20866;DHT22;10593;48.398;10.698;2022-09-25T09:33:44;15.10;67.90
20866;DHT22;10593;48.398;10.698;2022-09-25T09:36:32;15.10;67.80
20866;DHT22;10593;48.398;10.698;2022-09-25T09:42:21;15.20;67.90
20866;DHT22;10593;48.398;10.698;2022-09-25T09:48:04;15.20;68.10
20866;DHT22;10593;48.398;10.698;2022-09-25T09:50:48;15.20;68.10
20866;DHT22;10593;48.398;10.698;2022-09-25T09:53:45;15.20;67.90
20866;DHT22;10593;48.398;10.698;2022-09-25T09:56:22;15.20;67.90
20866;DHT22;10593;48.398;10.698;2022-09-25T09:58:56;15.20;67.80
20866;DHT22;10593;48.398;10.698;2022-09-25T10:01:37;15.20;67.80
20866;DHT22;10593;48.398;10.698;2022-09-25T10:04:08;15.20;67.70
20866;DHT22;10593;48.398;10.698;2022-09-25T10:06:39;15.30;67.90
20866;DHT22;10593;48.398;10.698;2022-09-25T10:09:14;15.30;68.00
20866;DHT22;10593;48.398;10.698;2022-09-25T10:11:43;15.30;67.80
20866;DHT22;10593;48.398;10.698;2022-09-25T10:14:19;15.30;67.70
20866;DHT22;10593;48.398;10.698;2022-09-25T10:16:50;15.20;67.60
20866;DHT22;10593;48.398;10.698;2022-09-25T10:19:18;15.30;67.70
20866;DHT22;10593;48.398;10.698;2022-09-25T10:21:54;15.30;67.50
20866;DHT22;10593;48.398;10.698;2022-09-25T10:24:44;15.30;67.50
20866;DHT22;10593;48.398;10.698;2022-09-25T10:35:23;15.40;67.70
20866;DHT22;10593;48.398;10.698;2022-09-25T10:37:54;15.40;67.80
20866;DHT22;10593;48.398;10.698;2022-09-25T10:40:26;15.40;67.70
20866;DHT22;10593;48.398;10.698;2022-09-25T10:43:14;15.40;67.90
20866;DHT22;10593;48.398;10.698;2022-09-25T10:45:42;15.40;67.90
20866;DHT22;10593;48.398;10.698;2022-09-25T10:48:29;15.40;67.70
20866;DHT22;10593;48.398;10.698;2022-09-25T10:51:15;15.50;67.60
20866;DHT22;10593;48.398;10.698;2022-09-25T10:53:43;15.50;68.20
20866;DHT22;10593;48.398;10.698;2022-09-25T10:56:13;15.50;67.50
20866;DHT22;10593;48.398;10.698;2022-09-25T10:59:01;15.50;67.60
20866;DHT22;10593;48.398;10.698;2022-09-25T11:01:36;15.50;67.50
20866;DHT22;10593;48.398;10.698;2022-09-25T11:04:44;15.50;67.50
20866;DHT22;10593;48.398;10.698;2022-09-25T11:07:06;15.60;67.60
20866;DHT22;10593;48.398;10.698;2022-09-25T11:09:43;15.60;67.30
20866;DHT22;10593;48.398;10.698;2022-09-25T11:12:26;15.60;67.00
20866;DHT22;10593;48.398;10.698;2022-09-25T11:14:59;15.60;67.00
20866;DHT22;10593;48.398;10.698;2022-09-25T11:17:31;15.60;66.90
20866;DHT22;10593;48.398;10.698;2022-09-25T11:22:49;15.70;66.50
20866;DHT22;10593;48.398;10.698;2022-09-25T11:25:49;15.70;66.20
20866;DHT22;10593;48.398;10.698;2022-09-25T11:39:12;15.70;66.00
20866;DHT22;10593;48.398;10.698;2022-09-25T11:42:29;15.70;66.00
20866;DHT22;10593;48.398;10.698;2022-09-25T11:45:12;15.70;65.90
20866;DHT22;10593;48.398;10.698;2022-09-25T11:51:03;15.80;66.00
20866;DHT22;10593;48.398;10.698;2022-09-25T11:59:39;15.80;65.90
20866;DHT22;10593;48.398;10.698;2022-09-25T12:08:36;15.90;66.60
20866;DHT22;10593;48.398;10.698;2022-09-25T12:17:53;16.00;67.40
20866;DHT22;10593;48.398;10.698;2022-09-25T12:23:32;16.10;67.10
20866;DHT22;10593;48.398;10.698;2022-09-25T12:32:13;16.30;67.50
20866;DHT22;10593;48.398;10.698;2022-09-25T12:35:26;16.30;66.90
20866;DHT22;10593;48.398;10.698;2022-09-25T12:38:03;16.40;66.10
20866;DHT22;10593;48.398;10.698;2022-09-25T12:40:47;16.50;66.60
20866;DHT22;10593;48.398;10.698;2022-09-25T12:43:30;16.50;66.10
20866;DHT22;10593;48.398;10.698;2022-09-25T12:46:07;16.60;66.00
20866;DHT22;10593;48.398;10.698;2022-09-25T12:49:01;16.60;65.90
20866;DHT22;10593;48.398;10.698;2022-09-25T12:51:47;16.70;65.80
20866;DHT22;10593;48.398;10.698;2022-09-25T12:54:45;16.70;65.60
20866;DHT22;10593;48.398;10.698;2022-09-25T12:57:22;16.80;65.40
20866;DHT22;10593;48.398;10.698;2022-09-25T12:59:55;16.80;64.90
20866;DHT22;10593;48.398;10.698;2022-09-25T13:02:45;16.80;64.80
20866;DHT22;10593;48.398;10.698;2022-09-25T13:05:40;16.80;64.60
20866;DHT22;10593;48.398;10.698;2022-09-25T13:11:01;16.80;64.60
20866;DHT22;10593;48.398;10.698;2022-09-25T13:13:39;16.80;64.60
20866;DHT22;10593;48.398;10.698;2022-09-25T13:16:11;16.90;64.70
20866;DHT22;10593;48.398;10.698;2022-09-25T13:18:46;16.90;64.40
20866;DHT22;10593;48.398;10.698;2022-09-25T13:21:30;16.90;63.90
20866;DHT22;10593;48.398;10.698;2022-09-25T13:24:00;16.90;63.90
20866;DHT22;10593;48.398;10.698;2022-09-25T13:26:26;16.90;63.90
20866;DHT22;10593;48.398;10.698;2022-09-25T13:28:56;17.00;64.20
20866;DHT22;10593;48.398;10.698;2022-09-25T13:31:28;17.00;64.30
20866;DHT22;10593;48.398;10.698;2022-09-25T13:34:05;17.00;64.50
20866;DHT22;10593;48.398;10.698;2022-09-25T13:36:55;17.00;64.00
20866;DHT22;10593;48.398;10.698;2022-09-25T13:39:32;17.10;64.40
20866;DHT22;10593;48.398;10.698;2022-09-25T13:42:32;17.00;64.20
20866;DHT22;10593;48.398;10.698;2022-09-25T13:45:33;17.10;64.80
20866;DHT22;10593;48.398;10.698;2022-09-25T13:48:12;17.10;64.00
20866;DHT22;10593;48.398;10.698;2022-09-25T13:54:41;17.10;63.70
20866;DHT22;10593;48.398;10.698;2022-09-25T13:56:52;17.20;63.60
20866;DHT22;10593;48.398;10.698;2022-09-25T13:59:21;17.20;63.70
20866;DHT22;10593;48.398;10.698;2022-09-25T14:01:54;17.20;63.40
20866;DHT22;10593;48.398;10.698;2022-09-25T14:07:04;17.30;63.60
20866;DHT22;10593;48.398;10.698;2022-09-25T14:09:41;17.30;63.50
20866;DHT22;10593;48.398;10.698;2022-09-25T14:15:02;17.30;63.40
20866;DHT22;10593;48.398;10.698;2022-09-25T14:17:32;17.30;63.30
20866;DHT22;10593;48.398;10.698;2022-09-25T14:20:03;17.30;63.50
20866;DHT22;10593;48.398;10.698;2022-09-25T14:22:36;17.30;63.40
20866;DHT22;10593;48.398;10.698;2022-09-25T14:25:32;17.30;63.10
20866;DHT22;10593;48.398;10.698;2022-09-25T14:28:13;17.30;63.20
20866;DHT22;10593;48.398;10.698;2022-09-25T14:31:01;17.30;63.20
20866;DHT22;10593;48.398;10.698;2022-09-25T14:39:28;17.20;63.30
20866;DHT22;10593;48.398;10.698;2022-09-25T14:47:58;17.20;63.50
20866;DHT22;10593;48.398;10.698;2022-09-25T14:50:28;17.20;63.20
20866;DHT22;10593;48.398;10.698;2022-09-25T14:53:04;17.20;63.10
20866;DHT22;10593;48.398;10.698;2022-09-25T14:55:41;17.10;62.90
20866;DHT22;10593;48.398;10.698;2022-09-25T14:58:16;17.20;63.40
20866;DHT22;10593;48.398;10.698;2022-09-25T15:00:48;17.10;63.70
20866;DHT22;10593;48.398;10.698;2022-09-25T15:03:20;17.10;63.60
20866;DHT22;10593;48.398;10.698;2022-09-25T15:05:51;17.10;63.70
20866;DHT22;10593;48.398;10.698;2022-09-25T15:08:22;17.10;63.80
20866;DHT22;10593;48.398;10.698;2022-09-25T15:11:15;17.10;63.80
20866;DHT22;10593;48.398;10.698;2022-09-25T15:13:43;17.10;63.70
20866;DHT22;10593;48.398;10.698;2022-09-25T15:16:25;17.10;63.90
20866;DHT22;10593;48.398;10.698;2022-09-25T15:19:17;17.10;63.90
20866;DHT22;10593;48.398;10.698;2022-09-25T15:21:45;17.10;64.10
20866;DHT22;10593;48.398;10.698;2022-09-25T15:24:18;17.10;63.80
20866;DHT22;10593;48.398;10.698;2022-09-25T15:26:51;17.10;63.80
20866;DHT22;10593;48.398;10.698;2022-09-25T15:29:36;17.00;63.60
20866;DHT22;10593;48.398;10.698;2022-09-25T15:32:05;17.10;63.70
20866;DHT22;10593;48.398;10.698;2022-09-25T15:34:39;17.10;63.70
20866;DHT22;10593;48.398;10.698;2022-09-25T15:39:52;17.10;64.00
20866;DHT22;10593;48.398;10.698;2022-09-25T15:42:18;17.10;63.70
20866;DHT22;10593;48.398;10.698;2022-09-25T15:44:45;17.10;63.70
20866;DHT22;10593;48.398;10.698;2022-09-25T15:50:01;17.10;64.20
20866;DHT22;10593;48.398;10.698;2022-09-25T15:52:29;17.00;64.00
20866;DHT22;10593;48.398;10.698;2022-09-25T15:55:19;17.10;64.20
20866;DHT22;10593;48.398;10.698;2022-09-25T15:57:46;17.10;64.50
20866;DHT22;10593;48.398;10.698;2022-09-25T16:00:21;17.00;64.30
20866;DHT22;10593;48.398;10.698;2022-09-25T16:03:22;17.00;64.40
20866;DHT22;10593;48.398;10.698;2022-09-25T16:06:13;17.00;64.50
20866;DHT22;10593;48.398;10.698;2022-09-25T16:08:40;17.00;64.50
20866;DHT22;10593;48.398;10.698;2022-09-25T16:11:22;17.00;64.50
20866;DHT22;10593;48.398;10.698;2022-09-25T16:13:52;17.00;64.50
20866;DHT22;10593;48.398;10.698;2022-09-25T16:16:44;17.00;64.50
20866;DHT22;10593;48.398;10.698;2022-09-25T16:21:50;17.00;64.60
20866;DHT22;10593;48.398;10.698;2022-09-25T16:24:19;17.00;64.50
20866;DHT22;10593;48.398;10.698;2022-09-25T16:26:56;17.00;64.50
20866;DHT22;10593;48.398;10.698;2022-09-25T16:29:26;17.00;64.60
20866;DHT22;10593;48.398;10.698;2022-09-25T16:32:00;17.00;64.50
20866;DHT22;10593;48.398;10.698;2022-09-25T16:34:33;17.00;64.60
20866;DHT22;10593;48.398;10.698;2022-09-25T16:37:03;17.00;64.50
20866;DHT22;10593;48.398;10.698;2022-09-25T16:39:35;17.00;64.50
20866;DHT22;10593;48.398;10.698;2022-09-25T16:44:47;17.00;65.10
20866;DHT22;10593;48.398;10.698;2022-09-25T16:47:16;17.00;65.00
20866;DHT22;10593;48.398;10.698;2022-09-25T16:49:45;17.00;65.10
20866;DHT22;10593;48.398;10.698;2022-09-25T16:52:15;17.00;65.10
20866;DHT22;10593;48.398;10.698;2022-09-25T16:54:49;17.00;65.10
20866;DHT22;10593;48.398;10.698;2022-09-25T16:57:20;17.00;65.00
20866;DHT22;10593;48.398;10.698;2022-09-25T16:59:48;17.00;64.90
20866;DHT22;10593;48.398;10.698;2022-09-25T17:05:14;17.00;64.80
20866;DHT22;10593;48.398;10.698;2022-09-25T17:07:56;17.00;64.80
20866;DHT22;10593;48.398;10.698;2022-09-25T17:10:40;17.00;65.00
20866;DHT22;10593;48.398;10.698;2022-09-25T17:13:06;17.00;65.00
20866;DHT22;10593;48.398;10.698;2022-09-25T17:15:35;17.00;65.10
20866;DHT22;10593;48.398;10.698;2022-09-25T17:18:02;17.00;65.40
20866;DHT22;10593;48.398;10.698;2022-09-25T17:20:36;17.00;65.40
20866;DHT22;10593;48.398;10.698;2022-09-25T17:23:01;17.00;65.40
20866;DHT22;10593;48.398;10.698;2022-09-25T17:25:44;17.00;65.60
20866;DHT22;10593;48.398;10.698;2022-09-25T17:28:16;17.00;65.90
20866;DHT22;10593;48.398;10.698;2022-09-25T17:30:43;17.00;65.80
20866;DHT22;10593;48.398;10.698;2022-09-25T17:33:14;17.00;65.80
20866;DHT22;10593;48.398;10.698;2022-09-25T17:35:50;17.00;65.90
20866;DHT22;10593;48.398;10.698;2022-09-25T17:38:20;16.90;65.90
20866;DHT22;10593;48.398;10.698;2022-09-25T17:40:47;16.90;65.80
20866;DHT22;10593;48.398;10.698;2022-09-25T17:43:17;16.90;65.90
20866;DHT22;10593;48.398;10.698;2022-09-25T17:45:46;16.90;65.90
20866;DHT22;10593;48.398;10.698;2022-09-25T17:48:21;16.90;66.00
20866;DHT22;10593;48.398;10.698;2022-09-25T17:51:03;16.90;66.00
20866;DHT22;10593;48.398;10.698;2022-09-25T17:53:40;16.90;66.30
20866;DHT22;10593;48.398;10.698;2022-09-25T17:56:07;16.90;66.00
20866;DHT22;10593;48.398;10.698;2022-09-25T17:58:34;16.90;66.10
20866;DHT22;10593;48.398;10.698;2022-09-25T18:01:01;16.90;66.10
20866;DHT22;10593;48.398;10.698;2022-09-25T18:03:31;16.90;66.10
20866;DHT22;10593;48.398;10.698;2022-09-25T18:05:57;16.90;66.10
20866;DHT22;10593;48.398;10.698;2022-09-25T18:08:23;16.80;66.10
20866;DHT22;10593;48.398;10.698;2022-09-25T18:10:52;16.90;66.30